sensor_id;sensor_type;location;lat;lon;timestamp;temperature;humidity
51466;DHT22;37542;50.164;9.086;2022-09-11T00:01:19;13.70;70.60
51466;DHT22;37542;50.164;9.086;2022-09-11T00:05:01;13.70;70.70
51466;DHT22;37542;50.164;9.086;2022-09-11T00:08:43;13.70;70.80
51466;DHT22;37542;50.164;9.086;2022-09-11T00:12:23;13.60;70.90
51466;DHT22;37542;50.164;9.086;2022-09-11T00:16:14;13.60;70.80
51466;DHT22;37542;50.164;9.086;2022-09-11T00:19:59;13.60;71.10
51466;DHT22;37542;50.164;9.086;2022-09-11T00:23:40;13.60;71.00
51466;DHT22;37542;50.164;9.086;2022-09-11T00:27:21;13.60;70.90
51466;DHT22;37542;50.164;9.086;2022-09-11T00:31:06;13.60;70.90
51466;DHT22;37542;50.164;9.086;2022-09-11T00:34:51;13.60;71.00
51466;DHT22;37542;50.164;9.086;2022-09-11T00:38:35;13.60;71.10
51466;DHT22;37542;50.164;9.086;2022-09-11T00:42:16;13.60;71.40
51466;DHT22;37542;50.164;9.086;2022-09-11T00:46:00;13.60;71.10
51466;DHT22;37542;50.164;9.086;2022-09-11T00:49:47;13.60;71.30
51466;DHT22;37542;50.164;9.086;2022-09-11T00:53:34;13.60;72.20
51466;DHT22;37542;50.164;9.086;2022-09-11T00:57:18;13.60;71.40
51466;DHT22;37542;50.164;9.086;2022-09-11T01:01:02;13.60;71.30
51466;DHT22;37542;50.164;9.086;2022-09-11T01:04:44;13.60;71.20
51466;DHT22;37542;50.164;9.086;2022-09-11T01:08:24;13.60;71.30
51466;DHT22;37542;50.164;9.086;2022-09-11T01:12:11;13.60;71.30
51466;DHT22;37542;50.164;9.086;2022-09-11T01:28:48;13.60;72.40
51466;DHT22;37542;50.164;9.086;2022-09-11T01:36:56;13.60;72.40
51466;DHT22;37542;50.164;9.086;2022-09-11T01:41:34;13.60;72.00
51466;DHT22;37542;50.164;9.086;2022-09-11T01:45:06;13.50;72.20
51466;DHT22;37542;50.164;9.086;2022-09-11T01:49:09;13.50;71.30
51466;DHT22;37542;50.164;9.086;2022-09-11T01:52:57;13.50;71.60
51466;DHT22;37542;50.164;9.086;2022-09-11T01:56:53;13.50;71.60
51466;DHT22;37542;50.164;9.086;2022-09-11T02:00:45;13.50;72.20
51466;DHT22;37542;50.164;9.086;2022-09-11T02:04:35;13.40;71.60
51466;DHT22;37542;50.164;9.086;2022-09-11T02:12:11;13.40;71.90
51466;DHT22;37542;50.164;9.086;2022-09-11T02:16:06;13.40;71.50
51466;DHT22;37542;50.164;9.086;2022-09-11T02:19:58;13.40;71.90
51466;DHT22;37542;50.164;9.086;2022-09-11T02:23:39;13.40;71.50
51466;DHT22;37542;50.164;9.086;2022-09-11T02:27:23;13.40;71.40
51466;DHT22;37542;50.164;9.086;2022-09-11T02:31:06;13.40;71.60
51466;DHT22;37542;50.164;9.086;2022-09-11T02:34:48;13.40;71.30
51466;DHT22;37542;50.164;9.086;2022-09-11T02:50:47;13.30;71.90
51466;DHT22;37542;50.164;9.086;2022-09-11T02:58:18;13.30;71.40
51466;DHT22;37542;50.164;9.086;2022-09-11T03:02:09;13.20;71.50
51466;DHT22;37542;50.164;9.086;2022-09-11T03:05:53;13.20;71.90
51466;DHT22;37542;50.164;9.086;2022-09-11T03:09:34;13.20;71.70
51466;DHT22;37542;50.164;9.086;2022-09-11T03:13:15;13.20;71.70
51466;DHT22;37542;50.164;9.086;2022-09-11T03:16:56;13.20;71.90
51466;DHT22;37542;50.164;9.086;2022-09-11T03:20:37;13.20;72.00
51466;DHT22;37542;50.164;9.086;2022-09-11T03:24:18;13.20;71.90
51466;DHT22;37542;50.164;9.086;2022-09-11T03:27:59;13.20;71.90
51466;DHT22;37542;50.164;9.086;2022-09-11T03:31:40;13.20;71.90
51466;DHT22;37542;50.164;9.086;2022-09-11T03:35:20;13.30;72.70
51466;DHT22;37542;50.164;9.086;2022-09-11T03:39:02;13.30;72.00
51466;DHT22;37542;50.164;9.086;2022-09-11T03:42:43;13.30;71.90
51466;DHT22;37542;50.164;9.086;2022-09-11T03:46:23;13.30;72.00
51466;DHT22;37542;50.164;9.086;2022-09-11T03:50:08;13.30;71.90
51466;DHT22;37542;50.164;9.086;2022-09-11T03:53:50;13.30;72.00
51466;DHT22;37542;50.164;9.086;2022-09-11T03:57:35;13.30;72.00
51466;DHT22;37542;50.164;9.086;2022-09-11T04:01:16;13.30;72.40
51466;DHT22;37542;50.164;9.086;2022-09-11T04:04:58;13.30;72.00
51466;DHT22;37542;50.164;9.086;2022-09-11T04:08:39;13.30;71.90
51466;DHT22;37542;50.164;9.086;2022-09-11T04:12:20;13.30;71.90
51466;DHT22;37542;50.164;9.086;2022-09-11T04:16:04;13.30;71.90
51466;DHT22;37542;50.164;9.086;2022-09-11T04:19:46;13.20;72.00
51466;DHT22;37542;50.164;9.086;2022-09-11T04:23:27;13.20;71.90
51466;DHT22;37542;50.164;9.086;2022-09-11T04:27:09;13.20;72.00
51466;DHT22;37542;50.164;9.086;2022-09-11T04:30:51;13.20;72.10
51466;DHT22;37542;50.164;9.086;2022-09-11T04:34:32;13.20;72.00
51466;DHT22;37542;50.164;9.086;2022-09-11T04:38:12;13.20;72.00
51466;DHT22;37542;50.164;9.086;2022-09-11T04:41:53;13.20;72.20
51466;DHT22;37542;50.164;9.086;2022-09-11T04:45:35;13.30;72.00
51466;DHT22;37542;50.164;9.086;2022-09-11T04:49:15;13.20;71.90
51466;DHT22;37542;50.164;9.086;2022-09-11T04:52:57;13.20;71.90
51466;DHT22;37542;50.164;9.086;2022-09-11T04:56:38;13.20;71.80
51466;DHT22;37542;50.164;9.086;2022-09-11T05:00:19;13.20;71.80
51466;DHT22;37542;50.164;9.086;2022-09-11T05:04:00;13.20;71.70
51466;DHT22;37542;50.164;9.086;2022-09-11T05:07:41;13.20;71.80
51466;DHT22;37542;50.164;9.086;2022-09-11T05:11:23;13.20;72.10
51466;DHT22;37542;50.164;9.086;2022-09-11T05:15:05;13.20;71.60
51466;DHT22;37542;50.164;9.086;2022-09-11T05:18:50;13.10;71.60
51466;DHT22;37542;50.164;9.086;2022-09-11T05:22:31;13.10;72.00
51466;DHT22;37542;50.164;9.086;2022-09-11T05:26:15;13.10;71.50
51466;DHT22;37542;50.164;9.086;2022-09-11T05:29:58;13.10;71.70
51466;DHT22;37542;50.164;9.086;2022-09-11T05:33:39;13.00;71.60
51466;DHT22;37542;50.164;9.086;2022-09-11T05:37:19;13.10;71.80
51466;DHT22;37542;50.164;9.086;2022-09-11T05:41:00;13.00;71.80
51466;DHT22;37542;50.164;9.086;2022-09-11T05:44:42;13.00;71.90
51466;DHT22;37542;50.164;9.086;2022-09-11T05:48:23;13.00;72.00
51466;DHT22;37542;50.164;9.086;2022-09-11T05:52:06;13.00;72.10
51466;DHT22;37542;50.164;9.086;2022-09-11T05:55:48;13.00;72.30
51466;DHT22;37542;50.164;9.086;2022-09-11T05:59:31;13.00;72.50
51466;DHT22;37542;50.164;9.086;2022-09-11T06:03:15;13.00;72.40
51466;DHT22;37542;50.164;9.086;2022-09-11T06:06:58;13.00;72.70
51466;DHT22;37542;50.164;9.086;2022-09-11T06:10:44;13.10;73.10
51466;DHT22;37542;50.164;9.086;2022-09-11T06:14:26;13.10;73.00
51466;DHT22;37542;50.164;9.086;2022-09-11T06:18:06;13.20;72.60
51466;DHT22;37542;50.164;9.086;2022-09-11T06:21:50;13.20;72.60
51466;DHT22;37542;50.164;9.086;2022-09-11T06:25:38;13.20;72.60
51466;DHT22;37542;50.164;9.086;2022-09-11T06:29:19;13.30;72.90
51466;DHT22;37542;50.164;9.086;2022-09-11T06:33:00;13.20;72.60
51466;DHT22;37542;50.164;9.086;2022-09-11T06:36:41;13.30;72.60
51466;DHT22;37542;50.164;9.086;2022-09-11T06:40:23;13.30;72.60
51466;DHT22;37542;50.164;9.086;2022-09-11T06:44:04;13.30;72.60
51466;DHT22;37542;50.164;9.086;2022-09-11T06:47:45;13.40;72.60
51466;DHT22;37542;50.164;9.086;2022-09-11T06:51:26;13.40;72.60
51466;DHT22;37542;50.164;9.086;2022-09-11T06:55:07;13.50;72.50
51466;DHT22;37542;50.164;9.086;2022-09-11T06:58:52;13.50;72.50
51466;DHT22;37542;50.164;9.086;2022-09-11T07:02:33;13.50;72.60
51466;DHT22;37542;50.164;9.086;2022-09-11T07:06:21;13.50;72.60
51466;DHT22;37542;50.164;9.086;2022-09-11T07:10:04;13.60;72.70
51466;DHT22;37542;50.164;9.086;2022-09-11T07:13:51;13.60;72.60
51466;DHT22;37542;50.164;9.086;2022-09-11T07:17:44;13.70;72.70
51466;DHT22;37542;50.164;9.086;2022-09-11T07:22:12;13.70;72.60
51466;DHT22;37542;50.164;9.086;2022-09-11T07:26:13;13.80;73.10
51466;DHT22;37542;50.164;9.086;2022-09-11T07:33:52;13.90;71.80
51466;DHT22;37542;50.164;9.086;2022-09-11T07:37:34;14.00;71.60
51466;DHT22;37542;50.164;9.086;2022-09-11T07:41:25;14.10;71.70
51466;DHT22;37542;50.164;9.086;2022-09-11T07:45:12;14.20;71.90
51466;DHT22;37542;50.164;9.086;2022-09-11T07:48:56;14.20;71.90
51466;DHT22;37542;50.164;9.086;2022-09-11T07:52:37;14.30;71.50
51466;DHT22;37542;50.164;9.086;2022-09-11T07:56:21;14.40;71.80
51466;DHT22;37542;50.164;9.086;2022-09-11T08:00:04;14.50;71.90
51466;DHT22;37542;50.164;9.086;2022-09-11T08:03:46;14.60;71.80
51466;DHT22;37542;50.164;9.086;2022-09-11T08:07:32;14.70;71.90
51466;DHT22;37542;50.164;9.086;2022-09-11T08:11:15;14.90;71.60
51466;DHT22;37542;50.164;9.086;2022-09-11T08:14:56;15.00;70.90
51466;DHT22;37542;50.164;9.086;2022-09-11T08:18:40;15.10;70.80
51466;DHT22;37542;50.164;9.086;2022-09-11T08:22:23;15.30;70.50
51466;DHT22;37542;50.164;9.086;2022-09-11T08:26:17;15.40;70.50
51466;DHT22;37542;50.164;9.086;2022-09-11T08:30:00;15.50;69.40
51466;DHT22;37542;50.164;9.086;2022-09-11T08:33:41;15.60;70.00
51466;DHT22;37542;50.164;9.086;2022-09-11T08:37:22;15.70;69.60
51466;DHT22;37542;50.164;9.086;2022-09-11T08:44:56;15.90;69.70
51466;DHT22;37542;50.164;9.086;2022-09-11T08:49:35;16.00;69.60
51466;DHT22;37542;50.164;9.086;2022-09-11T08:53:23;16.10;68.80
51466;DHT22;37542;50.164;9.086;2022-09-11T09:06:53;16.50;67.20
51466;DHT22;37542;50.164;9.086;2022-09-11T09:17:10;16.60;67.40
51466;DHT22;37542;50.164;9.086;2022-09-11T09:26:20;16.70;66.20
51466;DHT22;37542;50.164;9.086;2022-09-11T09:30:20;16.70;66.20
51466;DHT22;37542;50.164;9.086;2022-09-11T09:34:11;16.70;66.80
51466;DHT22;37542;50.164;9.086;2022-09-11T09:37:58;16.80;66.10
51466;DHT22;37542;50.164;9.086;2022-09-11T09:46:44;17.00;65.80
51466;DHT22;37542;50.164;9.086;2022-09-11T09:54:19;17.20;65.60
51466;DHT22;37542;50.164;9.086;2022-09-11T09:58:03;17.20;65.30
51466;DHT22;37542;50.164;9.086;2022-09-11T10:01:48;17.30;65.40
51466;DHT22;37542;50.164;9.086;2022-09-11T10:05:40;17.30;65.00
51466;DHT22;37542;50.164;9.086;2022-09-11T10:09:26;17.40;63.90
51466;DHT22;37542;50.164;9.086;2022-09-11T10:13:22;17.50;63.90
51466;DHT22;37542;50.164;9.086;2022-09-11T10:17:05;17.50;62.70
51466;DHT22;37542;50.164;9.086;2022-09-11T10:20:46;17.60;63.90
51466;DHT22;37542;50.164;9.086;2022-09-11T10:24:30;17.60;63.80
51466;DHT22;37542;50.164;9.086;2022-09-11T10:28:16;17.70;63.40
51466;DHT22;37542;50.164;9.086;2022-09-11T10:32:41;17.80;64.70
51466;DHT22;37542;50.164;9.086;2022-09-11T10:36:26;17.90;63.70
51466;DHT22;37542;50.164;9.086;2022-09-11T10:40:21;18.00;63.40
51466;DHT22;37542;50.164;9.086;2022-09-11T10:44:05;18.10;62.30
51466;DHT22;37542;50.164;9.086;2022-09-11T10:48:13;18.10;62.50
51466;DHT22;37542;50.164;9.086;2022-09-11T10:52:23;18.20;61.60
51466;DHT22;37542;50.164;9.086;2022-09-11T11:06:53;18.10;59.90
51466;DHT22;37542;50.164;9.086;2022-09-11T11:19:47;18.30;61.70
51466;DHT22;37542;50.164;9.086;2022-09-11T11:27:41;18.60;60.10
51466;DHT22;37542;50.164;9.086;2022-09-11T11:35:29;19.10;61.20
51466;DHT22;37542;50.164;9.086;2022-09-11T11:43:41;19.50;58.00
51466;DHT22;37542;50.164;9.086;2022-09-11T11:47:31;19.80;59.60
51466;DHT22;37542;50.164;9.086;2022-09-11T12:09:00;20.70;56.40
51466;DHT22;37542;50.164;9.086;2022-09-11T12:13:28;20.90;57.50
51466;DHT22;37542;50.164;9.086;2022-09-11T12:18:30;21.10;57.50
51466;DHT22;37542;50.164;9.086;2022-09-11T12:22:51;21.40;55.50
51466;DHT22;37542;50.164;9.086;2022-09-11T12:36:58;21.80;54.20
51466;DHT22;37542;50.164;9.086;2022-09-11T12:41:34;21.80;53.50
51466;DHT22;37542;50.164;9.086;2022-09-11T12:50:54;21.60;53.00
51466;DHT22;37542;50.164;9.086;2022-09-11T12:55:25;21.60;53.00
51466;DHT22;37542;50.164;9.086;2022-09-11T12:59:41;21.60;52.80
51466;DHT22;37542;50.164;9.086;2022-09-11T13:03:30;21.70;51.50
51466;DHT22;37542;50.164;9.086;2022-09-11T13:08:00;21.80;52.70
51466;DHT22;37542;50.164;9.086;2022-09-11T13:17:47;22.00;52.50
51466;DHT22;37542;50.164;9.086;2022-09-11T13:21:36;22.10;51.30
51466;DHT22;37542;50.164;9.086;2022-09-11T13:25:23;22.20;51.50
51466;DHT22;37542;50.164;9.086;2022-09-11T13:29:12;22.30;52.00
51466;DHT22;37542;50.164;9.086;2022-09-11T13:33:06;22.40;51.30
51466;DHT22;37542;50.164;9.086;2022-09-11T13:36:49;22.50;50.70
51466;DHT22;37542;50.164;9.086;2022-09-11T13:45:00;22.70;48.60
51466;DHT22;37542;50.164;9.086;2022-09-11T13:48:49;22.80;51.40
51466;DHT22;37542;50.164;9.086;2022-09-11T13:52:52;22.80;51.20
51466;DHT22;37542;50.164;9.086;2022-09-11T13:56:40;22.80;50.10
51466;DHT22;37542;50.164;9.086;2022-09-11T14:04:17;22.60;50.90
51466;DHT22;37542;50.164;9.086;2022-09-11T14:08:03;22.50;50.90
51466;DHT22;37542;50.164;9.086;2022-09-11T14:11:49;22.40;49.50
51466;DHT22;37542;50.164;9.086;2022-09-11T14:15:38;22.30;50.80
51466;DHT22;37542;50.164;9.086;2022-09-11T14:19:25;22.20;50.60
51466;DHT22;37542;50.164;9.086;2022-09-11T14:23:48;22.10;49.70
51466;DHT22;37542;50.164;9.086;2022-09-11T14:38:24;21.90;50.70
51466;DHT22;37542;50.164;9.086;2022-09-11T14:42:19;21.90;51.20
51466;DHT22;37542;50.164;9.086;2022-09-11T14:46:02;21.80;50.50
51466;DHT22;37542;50.164;9.086;2022-09-11T14:49:44;21.90;51.30
51466;DHT22;37542;50.164;9.086;2022-09-11T14:53:29;21.90;51.00
51466;DHT22;37542;50.164;9.086;2022-09-11T14:57:12;22.00;50.90
51466;DHT22;37542;50.164;9.086;2022-09-11T15:00:55;22.10;50.60
51466;DHT22;37542;50.164;9.086;2022-09-11T15:04:36;22.20;50.50
51466;DHT22;37542;50.164;9.086;2022-09-11T15:08:17;22.20;50.00
51466;DHT22;37542;50.164;9.086;2022-09-11T15:11:58;22.20;49.30
51466;DHT22;37542;50.164;9.086;2022-09-11T15:15:59;22.20;49.70
51466;DHT22;37542;50.164;9.086;2022-09-11T15:24:18;22.00;49.40
51466;DHT22;37542;50.164;9.086;2022-09-11T15:28:34;22.00;48.30
51466;DHT22;37542;50.164;9.086;2022-09-11T15:33:13;21.80;49.30
51466;DHT22;37542;50.164;9.086;2022-09-11T15:42:04;21.70;49.50
51466;DHT22;37542;50.164;9.086;2022-09-11T16:05:19;20.90;50.10
51466;DHT22;37542;50.164;9.086;2022-09-11T16:19:09;20.60;49.90
51466;DHT22;37542;50.164;9.086;2022-09-11T16:28:13;20.50;49.80
51466;DHT22;37542;50.164;9.086;2022-09-11T16:37:15;20.40;49.90
51466;DHT22;37542;50.164;9.086;2022-09-11T16:49:41;20.20;50.40
51466;DHT22;37542;50.164;9.086;2022-09-11T16:53:24;20.20;50.30
51466;DHT22;37542;50.164;9.086;2022-09-11T16:57:07;20.20;50.60
51466;DHT22;37542;50.164;9.086;2022-09-11T17:00:48;20.10;51.30
51466;DHT22;37542;50.164;9.086;2022-09-11T17:04:28;20.10;50.90
51466;DHT22;37542;50.164;9.086;2022-09-11T17:08:16;20.10;50.70
51466;DHT22;37542;50.164;9.086;2022-09-11T17:12:11;20.00;50.50
51466;DHT22;37542;50.164;9.086;2022-09-11T17:16:09;19.90;50.90
51466;DHT22;37542;50.164;9.086;2022-09-11T17:20:12;19.90;50.60
51466;DHT22;37542;50.164;9.086;2022-09-11T17:23:55;19.80;51.30
51466;DHT22;37542;50.164;9.086;2022-09-11T17:27:49;19.70;51.40
51466;DHT22;37542;50.164;9.086;2022-09-11T17:31:34;19.60;51.10
51466;DHT22;37542;50.164;9.086;2022-09-11T17:35:15;19.50;51.50
51466;DHT22;37542;50.164;9.086;2022-09-11T17:38:56;19.40;51.90
51466;DHT22;37542;50.164;9.086;2022-09-11T17:42:39;19.30;52.20
51466;DHT22;37542;50.164;9.086;2022-09-11T17:46:21;19.20;52.10
51466;DHT22;37542;50.164;9.086;2022-09-11T17:50:03;19.10;52.10
51466;DHT22;37542;50.164;9.086;2022-09-11T17:53:47;19.00;52.50
51466;DHT22;37542;50.164;9.086;2022-09-11T17:57:33;18.80;53.00
51466;DHT22;37542;50.164;9.086;2022-09-11T18:01:14;18.70;53.20
51466;DHT22;37542;50.164;9.086;2022-09-11T18:04:55;18.60;53.50
51466;DHT22;37542;50.164;9.086;2022-09-11T18:08:36;18.40;53.80
51466;DHT22;37542;50.164;9.086;2022-09-11T18:12:16;18.20;54.00
51466;DHT22;37542;50.164;9.086;2022-09-11T18:15:57;18.10;54.40
51466;DHT22;37542;50.164;9.086;2022-09-11T18:19:38;18.00;54.60
51466;DHT22;37542;50.164;9.086;2022-09-11T18:23:20;17.80;54.70
51466;DHT22;37542;50.164;9.086;2022-09-11T18:27:02;17.70;55.20
51466;DHT22;37542;50.164;9.086;2022-09-11T18:30:52;17.60;55.40
51466;DHT22;37542;50.164;9.086;2022-09-11T18:39:44;17.30;56.20
51466;DHT22;37542;50.164;9.086;2022-09-11T18:52:51;16.80;56.70
51466;DHT22;37542;50.164;9.086;2022-09-11T18:56:32;16.60;56.90
51466;DHT22;37542;50.164;9.086;2022-09-11T19:00:16;16.50;56.50
51466;DHT22;37542;50.164;9.086;2022-09-11T19:03:58;16.40;56.80
51466;DHT22;37542;50.164;9.086;2022-09-11T19:07:38;16.30;56.90
51466;DHT22;37542;50.164;9.086;2022-09-11T19:11:28;16.20;56.90
51466;DHT22;37542;50.164;9.086;2022-09-11T19:15:09;16.10;58.10
51466;DHT22;37542;50.164;9.086;2022-09-11T19:18:53;16.00;57.40
51466;DHT22;37542;50.164;9.086;2022-09-11T19:23:05;15.80;58.20
51466;DHT22;37542;50.164;9.086;2022-09-11T19:26:48;15.80;57.90
51466;DHT22;37542;50.164;9.086;2022-09-11T19:30:31;15.70;58.00
51466;DHT22;37542;50.164;9.086;2022-09-11T19:34:12;15.50;58.10
51466;DHT22;37542;50.164;9.086;2022-09-11T19:37:53;15.40;58.20
51466;DHT22;37542;50.164;9.086;2022-09-11T19:41:36;15.40;58.20
51466;DHT22;37542;50.164;9.086;2022-09-11T19:45:18;15.30;58.40
51466;DHT22;37542;50.164;9.086;2022-09-11T19:49:01;15.20;58.60
51466;DHT22;37542;50.164;9.086;2022-09-11T19:52:42;15.10;58.70
51466;DHT22;37542;50.164;9.086;2022-09-11T19:56:24;15.00;58.60
51466;DHT22;37542;50.164;9.086;2022-09-11T20:00:06;14.90;58.80
51466;DHT22;37542;50.164;9.086;2022-09-11T20:03:50;14.90;59.10
51466;DHT22;37542;50.164;9.086;2022-09-11T20:07:34;14.80;59.20
51466;DHT22;37542;50.164;9.086;2022-09-11T20:11:19;14.70;59.00
51466;DHT22;37542;50.164;9.086;2022-09-11T20:15:05;14.60;59.30
51466;DHT22;37542;50.164;9.086;2022-09-11T20:18:46;14.50;59.70
51466;DHT22;37542;50.164;9.086;2022-09-11T20:22:28;14.40;59.40
51466;DHT22;37542;50.164;9.086;2022-09-11T20:26:20;14.30;59.60
51466;DHT22;37542;50.164;9.086;2022-09-11T20:30:05;14.30;60.40
51466;DHT22;37542;50.164;9.086;2022-09-11T20:33:48;14.20;59.80
51466;DHT22;37542;50.164;9.086;2022-09-11T20:37:29;14.20;60.00
51466;DHT22;37542;50.164;9.086;2022-09-11T20:41:12;14.10;60.00
51466;DHT22;37542;50.164;9.086;2022-09-11T20:44:54;14.00;60.30
51466;DHT22;37542;50.164;9.086;2022-09-11T20:48:35;14.00;60.20
51466;DHT22;37542;50.164;9.086;2022-09-11T20:52:16;13.90;60.40
51466;DHT22;37542;50.164;9.086;2022-09-11T20:56:05;13.90;60.40
51466;DHT22;37542;50.164;9.086;2022-09-11T20:59:47;13.80;61.50
51466;DHT22;37542;50.164;9.086;2022-09-11T21:03:30;13.70;60.50
51466;DHT22;37542;50.164;9.086;2022-09-11T21:07:11;13.60;60.80
51466;DHT22;37542;50.164;9.086;2022-09-11T21:10:52;13.60;60.70
51466;DHT22;37542;50.164;9.086;2022-09-11T21:14:32;13.50;60.60
51466;DHT22;37542;50.164;9.086;2022-09-11T21:18:14;13.50;60.70
51466;DHT22;37542;50.164;9.086;2022-09-11T21:21:55;13.40;61.00
51466;DHT22;37542;50.164;9.086;2022-09-11T21:25:38;13.40;61.00
51466;DHT22;37542;50.164;9.086;2022-09-11T21:29:19;13.30;61.80
51466;DHT22;37542;50.164;9.086;2022-09-11T21:33:00;13.30;61.30
51466;DHT22;37542;50.164;9.086;2022-09-11T21:36:41;13.20;61.40
51466;DHT22;37542;50.164;9.086;2022-09-11T21:40:22;13.10;61.70
51466;DHT22;37542;50.164;9.086;2022-09-11T21:44:03;13.10;61.90
51466;DHT22;37542;50.164;9.086;2022-09-11T21:47:44;13.10;62.00
51466;DHT22;37542;50.164;9.086;2022-09-11T21:51:25;13.10;62.30
51466;DHT22;37542;50.164;9.086;2022-09-11T21:55:06;13.10;62.40
51466;DHT22;37542;50.164;9.086;2022-09-11T21:58:47;13.00;62.70
51466;DHT22;37542;50.164;9.086;2022-09-11T22:02:29;13.00;62.60
51466;DHT22;37542;50.164;9.086;2022-09-11T22:06:11;13.10;62.80
51466;DHT22;37542;50.164;9.086;2022-09-11T22:09:52;13.10;62.80
51466;DHT22;37542;50.164;9.086;2022-09-11T22:13:33;13.00;62.80
51466;DHT22;37542;50.164;9.086;2022-09-11T22:17:17;13.00;62.80
51466;DHT22;37542;50.164;9.086;2022-09-11T22:20:58;13.00;62.70
51466;DHT22;37542;50.164;9.086;2022-09-11T22:24:40;13.00;62.70
51466;DHT22;37542;50.164;9.086;2022-09-11T22:28:21;12.90;62.50
51466;DHT22;37542;50.164;9.086;2022-09-11T22:32:04;12.90;62.50
51466;DHT22;37542;50.164;9.086;2022-09-11T22:35:45;12.90;63.40
51466;DHT22;37542;50.164;9.086;2022-09-11T22:39:26;12.80;62.50
51466;DHT22;37542;50.164;9.086;2022-09-11T22:43:07;12.80;62.60
51466;DHT22;37542;50.164;9.086;2022-09-11T22:46:48;12.70;62.50
51466;DHT22;37542;50.164;9.086;2022-09-11T22:50:29;12.70;62.60
51466;DHT22;37542;50.164;9.086;2022-09-11T22:54:12;12.60;62.70
51466;DHT22;37542;50.164;9.086;2022-09-11T22:57:53;12.60;62.90
51466;DHT22;37542;50.164;9.086;2022-09-11T23:01:35;12.50;62.60
51466;DHT22;37542;50.164;9.086;2022-09-11T23:05:16;12.50;62.80
51466;DHT22;37542;50.164;9.086;2022-09-11T23:09:15;12.40;62.80
51466;DHT22;37542;50.164;9.086;2022-09-11T23:12:56;12.40;62.80
51466;DHT22;37542;50.164;9.086;2022-09-11T23:16:37;12.30;62.80
51466;DHT22;37542;50.164;9.086;2022-09-11T23:20:18;12.20;62.90
51466;DHT22;37542;50.164;9.086;2022-09-11T23:23:59;12.20;62.80
51466;DHT22;37542;50.164;9.086;2022-09-11T23:27:43;12.20;63.10
51466;DHT22;37542;50.164;9.086;2022-09-11T23:31:29;12.10;63.20
51466;DHT22;37542;50.164;9.086;2022-09-11T23:35:11;12.10;63.20
51466;DHT22;37542;50.164;9.086;2022-09-11T23:38:52;12.00;63.20
51466;DHT22;37542;50.164;9.086;2022-09-11T23:42:34;12.00;63.30
51466;DHT22;37542;50.164;9.086;2022-09-11T23:46:15;11.90;63.20
51466;DHT22;37542;50.164;9.086;2022-09-11T23:49:56;11.90;63.40
51466;DHT22;37542;50.164;9.086;2022-09-11T23:53:38;11.80;63.40
51466;DHT22;37542;50.164;9.086;2022-09-11T23:57:40;11.70;63.40
